sensor_id;sensor_type;location;lat;lon;timestamp;pressure;altitude;pressure_sealevel;temperature;humidity
33189;BME280;52601;53.070;10.600;2023-07-31T00:01:12;100727.94;;;18.59;100.00
33189;BME280;52601;53.070;10.600;2023-07-31T00:03:58;100724.41;;;18.69;100.00
33189;BME280;52601;53.070;10.600;2023-07-31T00:06:44;100718.13;;;18.70;100.00
33189;BME280;52601;53.070;10.600;2023-07-31T00:09:29;100713.19;;;18.77;100.00
33189;BME280;52601;53.070;10.600;2023-07-31T00:12:15;100715.78;;;18.88;100.00
33189;BME280;52601;53.070;10.600;2023-07-31T00:15:00;100711.31;;;18.88;100.00
33189;BME280;52601;53.070;10.600;2023-07-31T00:17:46;100711.75;;;18.93;100.00
33189;BME280;52601;53.070;10.600;2023-07-31T00:20:33;100703.38;;;18.77;100.00
33189;BME280;52601;53.070;10.600;2023-07-31T00:23:18;100701.06;;;18.84;100.00
33189;BME280;52601;53.070;10.600;2023-07-31T00:26:03;100696.72;;;18.83;100.00
33189;BME280;52601;53.070;10.600;2023-07-31T00:28:49;100693.44;;;18.90;100.00
33189;BME280;52601;53.070;10.600;2023-07-31T00:31:34;100690.56;;;18.82;100.00
33189;BME280;52601;53.070;10.600;2023-07-31T00:34:20;100690.56;;;18.82;100.00
33189;BME280;52601;53.070;10.600;2023-07-31T00:37:06;100688.81;;;18.92;100.00
33189;BME280;52601;53.070;10.600;2023-07-31T00:39:52;100688.75;;;18.83;100.00
33189;BME280;52601;53.070;10.600;2023-07-31T00:42:37;100677.78;;;18.76;100.00
33189;BME280;52601;53.070;10.600;2023-07-31T00:45:23;100677.22;;;18.62;100.00
33189;BME280;52601;53.070;10.600;2023-07-31T00:48:09;100677.69;;;18.67;100.00
33189;BME280;52601;53.070;10.600;2023-07-31T00:50:54;100682.94;;;18.46;100.00
33189;BME280;52601;53.070;10.600;2023-07-31T00:53:40;100683.28;;;18.42;100.00
33189;BME280;52601;53.070;10.600;2023-07-31T00:56:29;100686.53;;;18.56;100.00
33189;BME280;52601;53.070;10.600;2023-07-31T00:59:14;100677.47;;;18.59;100.00
33189;BME280;52601;53.070;10.600;2023-07-31T01:02:00;100671.09;;;18.82;100.00
33189;BME280;52601;53.070;10.600;2023-07-31T01:04:46;100665.56;;;18.85;100.00
33189;BME280;52601;53.070;10.600;2023-07-31T01:07:50;100652.09;;;18.66;100.00
33189;BME280;52601;53.070;10.600;2023-07-31T01:11:00;100658.78;;;18.49;100.00
33189;BME280;52601;53.070;10.600;2023-07-31T01:13:47;100650.22;;;18.77;100.00
33189;BME280;52601;53.070;10.600;2023-07-31T01:16:33;100652.97;;;18.87;100.00
33189;BME280;52601;53.070;10.600;2023-07-31T01:19:22;100657.25;;;18.78;100.00
33189;BME280;52601;53.070;10.600;2023-07-31T01:22:21;100652.66;;;18.69;100.00
33189;BME280;52601;53.070;10.600;2023-07-31T01:28:35;100660.00;;;18.34;100.00
33189;BME280;52601;53.070;10.600;2023-07-31T01:31:25;100645.44;;;18.92;100.00
33189;BME280;52601;53.070;10.600;2023-07-31T01:34:11;100635.66;;;18.92;100.00
33189;BME280;52601;53.070;10.600;2023-07-31T01:36:57;100619.44;;;18.96;100.00
33189;BME280;52601;53.070;10.600;2023-07-31T01:39:43;100640.19;;;18.38;100.00
33189;BME280;52601;53.070;10.600;2023-07-31T01:42:29;100650.63;;;18.93;100.00
33189;BME280;52601;53.070;10.600;2023-07-31T01:45:15;100634.31;;;19.19;100.00
33189;BME280;52601;53.070;10.600;2023-07-31T01:48:00;100627.09;;;19.10;100.00
33189;BME280;52601;53.070;10.600;2023-07-31T01:50:46;100622.38;;;19.13;100.00
33189;BME280;52601;53.070;10.600;2023-07-31T01:53:31;100627.22;;;18.87;100.00
33189;BME280;52601;53.070;10.600;2023-07-31T01:56:17;100633.38;;;18.88;100.00
33189;BME280;52601;53.070;10.600;2023-07-31T01:59:02;100628.66;;;18.91;100.00
33189;BME280;52601;53.070;10.600;2023-07-31T02:01:48;100622.81;;;18.98;100.00
33189;BME280;52601;53.070;10.600;2023-07-31T02:04:34;100610.31;;;18.88;100.00
33189;BME280;52601;53.070;10.600;2023-07-31T02:07:20;100618.28;;;18.88;100.00
33189;BME280;52601;53.070;10.600;2023-07-31T02:10:05;100605.97;;;19.29;100.00
33189;BME280;52601;53.070;10.600;2023-07-31T02:12:51;100595.53;;;18.96;100.00
33189;BME280;52601;53.070;10.600;2023-07-31T02:15:37;100603.88;;;18.70;100.00
33189;BME280;52601;53.070;10.600;2023-07-31T02:18:22;100616.81;;;18.75;100.00
33189;BME280;52601;53.070;10.600;2023-07-31T02:21:08;100613.28;;;18.74;100.00
33189;BME280;52601;53.070;10.600;2023-07-31T02:23:54;100613.28;;;18.74;100.00
33189;BME280;52601;53.070;10.600;2023-07-31T02:26:39;100610.56;;;18.65;100.00
33189;BME280;52601;53.070;10.600;2023-07-31T02:29:25;100593.06;;;19.24;100.00
33189;BME280;52601;53.070;10.600;2023-07-31T02:32:11;100596.06;;;18.89;100.00
33189;BME280;52601;53.070;10.600;2023-07-31T02:34:57;100602.28;;;19.00;100.00
33189;BME280;52601;53.070;10.600;2023-07-31T02:37:42;100591.75;;;19.39;100.00
33189;BME280;52601;53.070;10.600;2023-07-31T02:40:28;100578.75;;;19.36;100.00
33189;BME280;52601;53.070;10.600;2023-07-31T02:43:13;100573.28;;;19.38;100.00
33189;BME280;52601;53.070;10.600;2023-07-31T02:45:59;100577.78;;;18.96;100.00
33189;BME280;52601;53.070;10.600;2023-07-31T02:48:44;100593.66;;;18.86;100.00
33189;BME280;52601;53.070;10.600;2023-07-31T02:51:31;100590.72;;;18.89;100.00
33189;BME280;52601;53.070;10.600;2023-07-31T02:54:16;100587.84;;;18.92;100.00
33189;BME280;52601;53.070;10.600;2023-07-31T02:57:01;100588.94;;;18.90;100.00
33189;BME280;52601;53.070;10.600;2023-07-31T02:59:47;100587.22;;;18.89;100.00
33189;BME280;52601;53.070;10.600;2023-07-31T03:02:32;100583.63;;;18.90;100.00
33189;BME280;52601;53.070;10.600;2023-07-31T03:05:18;100579.91;;;18.81;100.00
33189;BME280;52601;53.070;10.600;2023-07-31T03:08:04;100591.19;;;18.74;100.00
33189;BME280;52601;53.070;10.600;2023-07-31T03:10:49;100578.09;;;18.82;100.00
33189;BME280;52601;53.070;10.600;2023-07-31T03:13:35;100571.38;;;18.99;100.00
33189;BME280;52601;53.070;10.600;2023-07-31T03:16:20;100579.09;;;18.81;100.00
33189;BME280;52601;53.070;10.600;2023-07-31T03:19:06;100576.41;;;19.02;100.00
33189;BME280;52601;53.070;10.600;2023-07-31T03:21:51;100574.84;;;18.99;100.00
33189;BME280;52601;53.070;10.600;2023-07-31T03:24:37;100559.56;;;18.91;100.00
33189;BME280;52601;53.070;10.600;2023-07-31T03:27:22;100568.31;;;18.82;100.00
33189;BME280;52601;53.070;10.600;2023-07-31T03:30:08;100553.56;;;19.20;100.00
33189;BME280;52601;53.070;10.600;2023-07-31T03:32:54;100567.84;;;18.77;100.00
33189;BME280;52601;53.070;10.600;2023-07-31T03:35:39;100561.81;;;19.17;100.00
33189;BME280;52601;53.070;10.600;2023-07-31T03:38:24;100562.28;;;18.80;100.00
33189;BME280;52601;53.070;10.600;2023-07-31T03:41:10;100573.56;;;18.93;100.00
33189;BME280;52601;53.070;10.600;2023-07-31T03:43:56;100574.22;;;19.07;100.00
33189;BME280;52601;53.070;10.600;2023-07-31T03:46:41;100571.94;;;18.81;100.00
33189;BME280;52601;53.070;10.600;2023-07-31T03:49:27;100570.13;;;18.82;100.00
33189;BME280;52601;53.070;10.600;2023-07-31T03:52:13;100577.59;;;19.09;100.00
33189;BME280;52601;53.070;10.600;2023-07-31T03:54:59;100559.69;;;19.11;100.00
33189;BME280;52601;53.070;10.600;2023-07-31T03:57:44;100566.28;;;19.16;100.00
33189;BME280;52601;53.070;10.600;2023-07-31T04:00:30;100552.69;;;18.89;100.00
33189;BME280;52601;53.070;10.600;2023-07-31T04:03:16;100570.84;;;19.05;100.00
33189;BME280;52601;53.070;10.600;2023-07-31T04:06:02;100566.66;;;19.12;100.00
33189;BME280;52601;53.070;10.600;2023-07-31T04:08:48;100558.44;;;19.15;100.00
33189;BME280;52601;53.070;10.600;2023-07-31T04:11:33;100564.88;;;18.91;100.00
33189;BME280;52601;53.070;10.600;2023-07-31T04:14:19;100555.16;;;19.32;100.00
33189;BME280;52601;53.070;10.600;2023-07-31T04:17:05;100548.22;;;18.89;100.00
33189;BME280;52601;53.070;10.600;2023-07-31T04:19:50;100551.44;;;19.14;100.00
33189;BME280;52601;53.070;10.600;2023-07-31T04:22:36;100544.88;;;19.18;100.00
33189;BME280;52601;53.070;10.600;2023-07-31T04:25:21;100550.06;;;19.19;100.00
33189;BME280;52601;53.070;10.600;2023-07-31T04:28:07;100544.03;;;19.17;100.00
33189;BME280;52601;53.070;10.600;2023-07-31T04:30:53;100540.72;;;19.25;100.00
33189;BME280;52601;53.070;10.600;2023-07-31T04:33:38;100535.09;;;19.18;100.00
33189;BME280;52601;53.070;10.600;2023-07-31T04:36:24;100538.47;;;19.20;100.00
33189;BME280;52601;53.070;10.600;2023-07-31T04:39:09;100540.41;;;19.18;100.00
33189;BME280;52601;53.070;10.600;2023-07-31T04:41:55;100542.50;;;19.15;100.00
33189;BME280;52601;53.070;10.600;2023-07-31T04:44:40;100540.13;;;19.21;100.00
33189;BME280;52601;53.070;10.600;2023-07-31T04:47:26;100544.91;;;19.27;100.00
33189;BME280;52601;53.070;10.600;2023-07-31T04:50:12;100538.50;;;19.30;100.00
33189;BME280;52601;53.070;10.600;2023-07-31T04:52:57;100536.44;;;19.33;100.00
33189;BME280;52601;53.070;10.600;2023-07-31T04:55:44;100538.94;;;19.05;100.00
33189;BME280;52601;53.070;10.600;2023-07-31T04:58:30;100549.56;;;18.63;100.00
33189;BME280;52601;53.070;10.600;2023-07-31T05:01:15;100555.56;;;18.76;100.00
33189;BME280;52601;53.070;10.600;2023-07-31T05:04:01;100550.72;;;19.12;100.00
33189;BME280;52601;53.070;10.600;2023-07-31T05:06:46;100540.81;;;19.14;100.00
33189;BME280;52601;53.070;10.600;2023-07-31T05:09:32;100529.84;;;18.77;100.00
33189;BME280;52601;53.070;10.600;2023-07-31T05:12:17;100535.41;;;18.74;100.00
33189;BME280;52601;53.070;10.600;2023-07-31T05:15:03;100543.50;;;18.72;100.00
33189;BME280;52601;53.070;10.600;2023-07-31T05:17:50;100527.41;;;18.74;100.00
33189;BME280;52601;53.070;10.600;2023-07-31T05:20:35;100536.69;;;19.00;100.00
33189;BME280;52601;53.070;10.600;2023-07-31T05:23:20;100516.50;;;19.28;100.00
33189;BME280;52601;53.070;10.600;2023-07-31T05:26:06;100512.06;;;19.68;100.00
33189;BME280;52601;53.070;10.600;2023-07-31T05:28:52;100501.94;;;19.52;100.00
33189;BME280;52601;53.070;10.600;2023-07-31T05:31:38;100505.63;;;19.70;100.00
33189;BME280;52601;53.070;10.600;2023-07-31T05:34:24;100499.69;;;19.57;100.00
33189;BME280;52601;53.070;10.600;2023-07-31T05:37:10;100510.03;;;19.51;100.00
33189;BME280;52601;53.070;10.600;2023-07-31T05:39:56;100506.19;;;19.64;100.00
33189;BME280;52601;53.070;10.600;2023-07-31T05:42:42;100488.13;;;19.68;100.00
33189;BME280;52601;53.070;10.600;2023-07-31T05:45:27;100493.81;;;19.54;100.00
33189;BME280;52601;53.070;10.600;2023-07-31T05:48:13;100493.59;;;19.76;100.00
33189;BME280;52601;53.070;10.600;2023-07-31T05:50:58;100488.31;;;20.33;100.00
33189;BME280;52601;53.070;10.600;2023-07-31T05:53:44;100493.19;;;20.09;100.00
33189;BME280;52601;53.070;10.600;2023-07-31T05:56:30;100483.41;;;20.00;100.00
33189;BME280;52601;53.070;10.600;2023-07-31T05:59:16;100490.78;;;19.87;100.00
33189;BME280;52601;53.070;10.600;2023-07-31T06:02:02;100483.66;;;19.68;100.00
33189;BME280;52601;53.070;10.600;2023-07-31T06:04:47;100494.72;;;19.93;100.00
33189;BME280;52601;53.070;10.600;2023-07-31T06:07:33;100486.50;;;20.34;100.00
33189;BME280;52601;53.070;10.600;2023-07-31T06:10:19;100482.50;;;20.67;100.00
33189;BME280;52601;53.070;10.600;2023-07-31T06:13:04;100466.38;;;20.78;100.00
33189;BME280;52601;53.070;10.600;2023-07-31T06:15:50;100454.78;;;20.50;100.00
33189;BME280;52601;53.070;10.600;2023-07-31T06:18:36;100467.00;;;20.33;100.00
33189;BME280;52601;53.070;10.600;2023-07-31T06:21:21;100477.13;;;20.30;100.00
33189;BME280;52601;53.070;10.600;2023-07-31T06:24:08;100471.78;;;20.39;100.00
33189;BME280;52601;53.070;10.600;2023-07-31T06:26:53;100478.06;;;20.10;100.00
33189;BME280;52601;53.070;10.600;2023-07-31T06:29:39;100488.16;;;20.16;100.00
33189;BME280;52601;53.070;10.600;2023-07-31T06:32:25;100474.69;;;20.36;100.00
33189;BME280;52601;53.070;10.600;2023-07-31T06:35:10;100478.09;;;20.48;100.00
33189;BME280;52601;53.070;10.600;2023-07-31T06:37:56;100472.88;;;20.46;100.00
33189;BME280;52601;53.070;10.600;2023-07-31T06:40:41;100461.13;;;20.39;100.00
33189;BME280;52601;53.070;10.600;2023-07-31T06:43:27;100468.00;;;20.42;100.00
33189;BME280;52601;53.070;10.600;2023-07-31T06:46:14;100469.09;;;20.39;100.00
33189;BME280;52601;53.070;10.600;2023-07-31T06:48:59;100473.44;;;20.59;100.00
33189;BME280;52601;53.070;10.600;2023-07-31T06:51:45;100461.13;;;20.30;100.00
33189;BME280;52601;53.070;10.600;2023-07-31T06:54:30;100462.13;;;20.19;100.00
33189;BME280;52601;53.070;10.600;2023-07-31T06:57:16;100474.31;;;20.22;100.00
33189;BME280;52601;53.070;10.600;2023-07-31T07:00:02;100448.47;;;20.51;100.00
33189;BME280;52601;53.070;10.600;2023-07-31T07:02:49;100445.56;;;20.35;100.00
33189;BME280;52601;53.070;10.600;2023-07-31T07:05:35;100439.53;;;20.33;100.00
33189;BME280;52601;53.070;10.600;2023-07-31T07:08:21;100466.38;;;20.68;100.00
33189;BME280;52601;53.070;10.600;2023-07-31T07:11:10;100427.31;;;20.86;100.00
33189;BME280;52601;53.070;10.600;2023-07-31T07:13:55;100427.06;;;21.16;100.00
33189;BME280;52601;53.070;10.600;2023-07-31T07:16:41;100419.50;;;21.12;100.00
33189;BME280;52601;53.070;10.600;2023-07-31T07:19:27;100425.66;;;20.85;100.00
33189;BME280;52601;53.070;10.600;2023-07-31T07:22:13;100432.38;;;20.89;100.00
33189;BME280;52601;53.070;10.600;2023-07-31T07:24:59;100436.34;;;20.66;100.00
33189;BME280;52601;53.070;10.600;2023-07-31T07:27:45;100440.19;;;20.44;100.00
33189;BME280;52601;53.070;10.600;2023-07-31T07:30:30;100444.41;;;20.47;100.00
33189;BME280;52601;53.070;10.600;2023-07-31T07:33:16;100437.50;;;20.64;100.00
33189;BME280;52601;53.070;10.600;2023-07-31T07:36:02;100442.28;;;20.50;100.00
33189;BME280;52601;53.070;10.600;2023-07-31T07:38:47;100432.22;;;20.54;100.00
33189;BME280;52601;53.070;10.600;2023-07-31T07:41:33;100433.47;;;20.40;100.00
33189;BME280;52601;53.070;10.600;2023-07-31T07:44:19;100425.59;;;20.48;100.00
33189;BME280;52601;53.070;10.600;2023-07-31T07:47:05;100444.00;;;20.51;100.00
33189;BME280;52601;53.070;10.600;2023-07-31T07:49:53;100439.97;;;20.75;100.00
33189;BME280;52601;53.070;10.600;2023-07-31T07:52:41;100437.78;;;20.60;100.00
33189;BME280;52601;53.070;10.600;2023-07-31T07:55:27;100433.34;;;20.51;100.00
33189;BME280;52601;53.070;10.600;2023-07-31T07:58:13;100445.09;;;20.49;100.00
33189;BME280;52601;53.070;10.600;2023-07-31T08:00:58;100442.19;;;20.52;100.00
33189;BME280;52601;53.070;10.600;2023-07-31T08:03:44;100437.94;;;20.59;100.00
33189;BME280;52601;53.070;10.600;2023-07-31T08:06:29;100430.16;;;20.75;100.00
33189;BME280;52601;53.070;10.600;2023-07-31T08:09:15;100430.22;;;20.66;100.00
33189;BME280;52601;53.070;10.600;2023-07-31T08:12:01;100438.53;;;20.43;100.00
33189;BME280;52601;53.070;10.600;2023-07-31T08:14:48;100431.66;;;20.41;100.00
33189;BME280;52601;53.070;10.600;2023-07-31T08:17:34;100423.94;;;20.47;100.00
33189;BME280;52601;53.070;10.600;2023-07-31T08:20:19;100424.63;;;20.49;100.00
33189;BME280;52601;53.070;10.600;2023-07-31T08:23:05;100422.50;;;20.63;100.00
33189;BME280;52601;53.070;10.600;2023-07-31T08:25:50;100426.31;;;20.60;100.00
33189;BME280;52601;53.070;10.600;2023-07-31T08:28:36;100420.03;;;20.42;100.00
33189;BME280;52601;53.070;10.600;2023-07-31T08:31:22;100413.66;;;20.62;100.00
33189;BME280;52601;53.070;10.600;2023-07-31T08:34:08;100411.13;;;20.60;100.00
33189;BME280;52601;53.070;10.600;2023-07-31T08:36:53;100415.06;;;20.56;100.00
33189;BME280;52601;53.070;10.600;2023-07-31T08:39:39;100411.44;;;20.57;100.00
33189;BME280;52601;53.070;10.600;2023-07-31T08:42:25;100414.41;;;20.45;100.00
33189;BME280;52601;53.070;10.600;2023-07-31T08:45:13;100412.16;;;20.50;100.00
33189;BME280;52601;53.070;10.600;2023-07-31T08:47:59;100416.00;;;20.75;100.00
33189;BME280;52601;53.070;10.600;2023-07-31T08:50:45;100398.13;;;20.57;100.00
33189;BME280;52601;53.070;10.600;2023-07-31T08:53:31;100406.41;;;21.18;100.00
33189;BME280;52601;53.070;10.600;2023-07-31T08:56:17;100398.44;;;20.82;100.00
33189;BME280;52601;53.070;10.600;2023-07-31T08:59:03;100393.97;;;20.73;100.00
33189;BME280;52601;53.070;10.600;2023-07-31T09:01:53;100395.88;;;20.90;100.00
33189;BME280;52601;53.070;10.600;2023-07-31T09:04:39;100394.56;;;20.67;100.00
33189;BME280;52601;53.070;10.600;2023-07-31T09:07:25;100395.56;;;20.93;100.00
33189;BME280;52601;53.070;10.600;2023-07-31T09:10:10;100394.88;;;20.91;100.00
33189;BME280;52601;53.070;10.600;2023-07-31T09:12:57;100381.28;;;20.94;100.00
33189;BME280;52601;53.070;10.600;2023-07-31T09:15:45;100383.91;;;20.67;100.00
33189;BME280;52601;53.070;10.600;2023-07-31T09:18:31;100384.97;;;20.83;100.00
33189;BME280;52601;53.070;10.600;2023-07-31T09:21:16;100380.44;;;20.56;100.00
33189;BME280;52601;53.070;10.600;2023-07-31T09:24:02;100376.66;;;21.40;100.00
33189;BME280;52601;53.070;10.600;2023-07-31T09:26:54;100357.69;;;21.96;100.00
33189;BME280;52601;53.070;10.600;2023-07-31T09:29:40;100349.28;;;22.09;100.00
33189;BME280;52601;53.070;10.600;2023-07-31T09:32:26;100347.81;;;22.14;100.00
33189;BME280;52601;53.070;10.600;2023-07-31T09:35:22;100329.72;;;22.08;100.00
33189;BME280;52601;53.070;10.600;2023-07-31T09:38:12;100338.16;;;21.96;100.00
33189;BME280;52601;53.070;10.600;2023-07-31T09:40:58;100338.84;;;22.23;100.00
33189;BME280;52601;53.070;10.600;2023-07-31T09:43:53;100332.13;;;22.45;100.00
33189;BME280;52601;53.070;10.600;2023-07-31T09:46:39;100335.69;;;22.54;100.00
33189;BME280;52601;53.070;10.600;2023-07-31T09:49:25;100336.94;;;22.67;100.00
33189;BME280;52601;53.070;10.600;2023-07-31T09:52:11;100322.59;;;23.18;100.00
33189;BME280;52601;53.070;10.600;2023-07-31T09:55:00;100314.69;;;23.00;100.00
33189;BME280;52601;53.070;10.600;2023-07-31T09:57:47;100302.28;;;22.91;100.00
33189;BME280;52601;53.070;10.600;2023-07-31T10:00:34;100313.53;;;23.19;100.00
33189;BME280;52601;53.070;10.600;2023-07-31T10:03:20;100320.09;;;23.17;100.00
33189;BME280;52601;53.070;10.600;2023-07-31T10:06:08;100308.19;;;23.27;100.00
33189;BME280;52601;53.070;10.600;2023-07-31T10:08:55;100322.88;;;23.07;100.00
33189;BME280;52601;53.070;10.600;2023-07-31T10:11:43;100319.94;;;22.76;100.00
33189;BME280;52601;53.070;10.600;2023-07-31T10:14:30;100322.38;;;22.62;100.00
33189;BME280;52601;53.070;10.600;2023-07-31T10:17:17;100322.13;;;22.73;100.00
33189;BME280;52601;53.070;10.600;2023-07-31T10:20:05;100320.91;;;23.17;100.00
33189;BME280;52601;53.070;10.600;2023-07-31T10:22:54;100311.75;;;24.24;100.00
33189;BME280;52601;53.070;10.600;2023-07-31T10:25:41;100290.28;;;24.32;91.35
33189;BME280;52601;53.070;10.600;2023-07-31T10:28:29;100294.03;;;23.67;92.39
33189;BME280;52601;53.070;10.600;2023-07-31T10:31:15;100293.22;;;23.58;94.00
33189;BME280;52601;53.070;10.600;2023-07-31T10:34:01;100290.03;;;23.55;96.02
33189;BME280;52601;53.070;10.600;2023-07-31T10:36:48;100310.78;;;22.87;98.55
33189;BME280;52601;53.070;10.600;2023-07-31T10:39:37;100314.09;;;22.73;100.00
33189;BME280;52601;53.070;10.600;2023-07-31T10:42:49;100312.09;;;22.83;100.00
33189;BME280;52601;53.070;10.600;2023-07-31T10:45:37;100315.06;;;22.72;100.00
33189;BME280;52601;53.070;10.600;2023-07-31T10:48:22;100307.41;;;22.51;100.00
33189;BME280;52601;53.070;10.600;2023-07-31T10:51:10;100311.63;;;22.87;100.00
33189;BME280;52601;53.070;10.600;2023-07-31T10:56:56;100304.28;;;22.97;100.00
33189;BME280;52601;53.070;10.600;2023-07-31T10:59:42;100295.72;;;22.44;100.00
33189;BME280;52601;53.070;10.600;2023-07-31T11:02:28;100300.31;;;23.09;100.00
33189;BME280;52601;53.070;10.600;2023-07-31T11:05:16;100279.66;;;23.76;100.00
33189;BME280;52601;53.070;10.600;2023-07-31T11:08:10;100285.13;;;23.98;96.80
33189;BME280;52601;53.070;10.600;2023-07-31T11:13:52;100287.88;;;23.58;100.00
33189;BME280;52601;53.070;10.600;2023-07-31T11:16:41;100290.97;;;23.22;100.00
33189;BME280;52601;53.070;10.600;2023-07-31T11:22:13;100307.50;;;23.09;100.00
33189;BME280;52601;53.070;10.600;2023-07-31T11:24:58;100300.38;;;22.76;100.00
33189;BME280;52601;53.070;10.600;2023-07-31T11:27:44;100314.16;;;22.97;100.00
33189;BME280;52601;53.070;10.600;2023-07-31T11:30:30;100309.59;;;22.81;100.00
33189;BME280;52601;53.070;10.600;2023-07-31T11:33:16;100299.84;;;23.14;100.00
33189;BME280;52601;53.070;10.600;2023-07-31T11:36:01;100287.72;;;22.86;100.00
33189;BME280;52601;53.070;10.600;2023-07-31T11:38:47;100299.31;;;23.19;100.00
33189;BME280;52601;53.070;10.600;2023-07-31T11:41:33;100294.25;;;22.91;100.00
33189;BME280;52601;53.070;10.600;2023-07-31T11:44:19;100283.00;;;22.72;100.00
33189;BME280;52601;53.070;10.600;2023-07-31T11:47:12;100277.06;;;23.10;100.00
33189;BME280;52601;53.070;10.600;2023-07-31T11:49:58;100267.38;;;23.25;100.00
33189;BME280;52601;53.070;10.600;2023-07-31T11:52:46;100266.09;;;22.71;100.00
33189;BME280;52601;53.070;10.600;2023-07-31T11:55:33;100279.97;;;22.41;100.00
33189;BME280;52601;53.070;10.600;2023-07-31T11:58:22;100290.41;;;22.52;100.00
33189;BME280;52601;53.070;10.600;2023-07-31T12:01:08;100267.28;;;22.69;100.00
33189;BME280;52601;53.070;10.600;2023-07-31T12:03:54;100263.19;;;22.98;100.00
33189;BME280;52601;53.070;10.600;2023-07-31T12:06:40;100259.84;;;23.04;100.00
33189;BME280;52601;53.070;10.600;2023-07-31T12:09:26;100252.72;;;23.53;100.00
33189;BME280;52601;53.070;10.600;2023-07-31T12:12:19;100225.75;;;23.63;100.00
33189;BME280;52601;53.070;10.600;2023-07-31T12:15:15;100234.44;;;23.17;100.00
33189;BME280;52601;53.070;10.600;2023-07-31T12:18:04;100258.38;;;23.18;100.00
33189;BME280;52601;53.070;10.600;2023-07-31T12:20:54;100242.19;;;23.36;100.00
33189;BME280;52601;53.070;10.600;2023-07-31T12:23:40;100239.44;;;23.11;100.00
33189;BME280;52601;53.070;10.600;2023-07-31T12:26:34;100267.66;;;22.90;100.00
33189;BME280;52601;53.070;10.600;2023-07-31T12:29:19;100270.84;;;22.93;100.00
33189;BME280;52601;53.070;10.600;2023-07-31T12:32:19;100268.94;;;22.70;100.00
33189;BME280;52601;53.070;10.600;2023-07-31T12:35:07;100267.00;;;22.88;100.00
33189;BME280;52601;53.070;10.600;2023-07-31T12:37:53;100257.13;;;22.47;100.00
33189;BME280;52601;53.070;10.600;2023-07-31T12:40:40;100269.16;;;22.09;100.00
33189;BME280;52601;53.070;10.600;2023-07-31T12:43:26;100271.16;;;21.89;100.00
33189;BME280;52601;53.070;10.600;2023-07-31T12:46:11;100273.78;;;22.33;100.00
33189;BME280;52601;53.070;10.600;2023-07-31T12:48:58;100262.53;;;21.95;100.00
33189;BME280;52601;53.070;10.600;2023-07-31T12:51:43;100264.63;;;22.09;100.00
33189;BME280;52601;53.070;10.600;2023-07-31T12:54:29;100256.06;;;22.32;100.00
33189;BME280;52601;53.070;10.600;2023-07-31T12:57:14;100242.72;;;22.40;100.00
33189;BME280;52601;53.070;10.600;2023-07-31T13:00:00;100241.50;;;22.60;100.00
33189;BME280;52601;53.070;10.600;2023-07-31T13:02:46;100228.16;;;22.26;100.00
33189;BME280;52601;53.070;10.600;2023-07-31T13:05:31;100233.31;;;22.27;100.00
33189;BME280;52601;53.070;10.600;2023-07-31T13:08:17;100235.00;;;22.28;100.00
33189;BME280;52601;53.070;10.600;2023-07-31T13:11:03;100236.75;;;22.12;100.00
33189;BME280;52601;53.070;10.600;2023-07-31T13:13:48;100250.19;;;21.94;100.00
33189;BME280;52601;53.070;10.600;2023-07-31T13:16:34;100239.19;;;21.80;100.00
33189;BME280;52601;53.070;10.600;2023-07-31T13:19:20;100252.47;;;21.89;100.00
33189;BME280;52601;53.070;10.600;2023-07-31T13:22:06;100248.81;;;21.90;100.00
33189;BME280;52601;53.070;10.600;2023-07-31T13:24:51;100238.03;;;22.00;100.00
33189;BME280;52601;53.070;10.600;2023-07-31T13:27:37;100245.59;;;21.61;100.00
33189;BME280;52601;53.070;10.600;2023-07-31T13:30:23;100228.78;;;21.69;100.00
33189;BME280;52601;53.070;10.600;2023-07-31T13:33:08;100230.66;;;21.76;100.00
33189;BME280;52601;53.070;10.600;2023-07-31T13:36:10;100219.69;;;21.79;100.00
33189;BME280;52601;53.070;10.600;2023-07-31T13:38:56;100435.16;;;39.07;100.00
33189;BME280;52601;53.070;10.600;2023-07-31T13:41:42;100438.47;;;41.06;100.00
33189;BME280;52601;53.070;10.600;2023-07-31T13:44:27;100403.34;;;41.42;100.00
33189;BME280;52601;53.070;10.600;2023-07-31T13:47:13;100322.78;;;41.55;100.00
33189;BME280;52601;53.070;10.600;2023-07-31T13:49:58;100409.66;;;29.06;100.00
33189;BME280;52601;53.070;10.600;2023-07-31T13:52:44;100358.41;;;25.39;100.00
33189;BME280;52601;53.070;10.600;2023-07-31T13:55:30;100294.97;;;29.09;100.00
33189;BME280;52601;53.070;10.600;2023-07-31T13:58:15;100718.22;;;44.86;100.00
33189;BME280;52601;53.070;10.600;2023-07-31T14:01:00;52551.44;;;-141.87;100.00
33189;BME280;52601;53.070;10.600;2023-07-31T14:03:46;52551.44;;;-141.87;100.00
33189;BME280;52601;53.070;10.600;2023-07-31T14:06:32;52551.44;;;-141.87;100.00
33189;BME280;52601;53.070;10.600;2023-07-31T14:09:17;52551.44;;;-141.87;100.00
33189;BME280;52601;53.070;10.600;2023-07-31T14:12:04;52551.44;;;-141.87;100.00
33189;BME280;52601;53.070;10.600;2023-07-31T14:14:49;52551.44;;;-141.87;100.00
33189;BME280;52601;53.070;10.600;2023-07-31T14:17:35;52551.44;;;-141.87;100.00
33189;BME280;52601;53.070;10.600;2023-07-31T14:20:21;52551.44;;;-141.87;100.00